BXTK1: Spring River at Baxter Springs

                                SHEF ID:       BXTK1     SPRING R NR BAXTER SPRINGS, KS
STATION TYPE:

PRECIP STAGE RIV-FLOW BAT-LOAD
in ft cfs volt
Ccp-Rev Ccp-Rev Ccp-Rev Ccp-Rev
(America/Chicago)
04/27 00:00 0.18 5.72 6509 12.37
04/27 01:00 0.00 6.67 10443 12.34
04/27 02:00 0.00 7.46 13350 12.31
04/27 03:00 0.00 8.39 16001 12.28
04/27 04:00 0.00 9.31 18664 12.29
04/27 05:00 0.00 10.02 20743 12.28
04/27 06:00 0.00 10.49 22130 12.26
04/27 07:00 0.00 10.60 22455 12.23
04/27 08:00 0.00 10.60 22455 12.25
04/27 09:00 0.00 10.49 22130 12.78
04/27 10:00 0.00 10.28 21509 13.19
04/27 11:00 0.00 10.16 21155 13.70
04/27 12:00 0.00 10.04 20802 13.95
04/27 13:00 0.00 9.77 20009 13.75
04/27 14:00 0.00 9.44 19043 13.81
04/27 15:00 0.00 9.10 18053 13.75
04/27 16:00 0.00 8.83 17270 13.68
04/27 17:00 0.00 8.55 16462 13.57
04/27 18:00 0.00 8.28 15685 13.39
04/27 19:00 0.00 8.05 15027 12.79
04/27 20:00 0.00 7.75 14172 12.45
04/27 21:00 0.00 7.50 13463 12.44
04/27 22:00 0.00 7.28 12842 12.42
04/27 23:00 ---- ---- ---- ----
Data processed at Tue 28Apr2026 04:42 GMT

NOTICE: If you are parsing this page

Please convert to using our Data API. Starting early 2026 we will be migrating to: https://water.usace.army.mil with modern pages rendered in JavaScript. When this migration completes you will no longer be able to scrape this page! CWMSDataAPI (CDA)

Timeseries IDs (TSIDs)

TSIDs used from left to right in the data table
BAXT.Precip-Inc.Total.1Hour.1Hour.Ccp-Rev
BAXT.Stage.Inst.1Hour.0.Ccp-Rev
BAXT.Flow.Inst.1Hour.0.Ccp-Rev
BAXT.Volt-Battery Load.Inst.1Hour.0.Ccp-Rev

                            

All information presented herein is the property of the government of the United States of America and may be revised or deleted at any time without prior notice. Dissemination of this information without the expressed written consent of the Public Affairs Office, Tulsa District U.S. Army Corps of Engineers is strictly prohibited. These data are gathered electronically and, as presented, have NOT undergone any form of quality control. These data are NOT guaranteed to be valid or correct.